sensor_id;sensor_type;location;lat;lon;timestamp;pressure;altitude;pressure_sealevel;temperature;humidity
3434;BME280;1730;41.932;25.548;2022-12-20T00:02:23;101370.22;;;-2.01;100.00
3434;BME280;1730;41.932;25.548;2022-12-20T00:04:50;101468.91;;;-1.47;100.00
3434;BME280;1730;41.932;25.548;2022-12-20T00:07:15;101559.37;;;-0.29;100.00
3434;BME280;1730;41.932;25.548;2022-12-20T00:09:41;101441.72;;;-1.06;100.00
3434;BME280;1730;41.932;25.548;2022-12-20T00:12:07;101591.22;;;-0.32;100.00
3434;BME280;1730;41.932;25.548;2022-12-20T00:14:33;101234.63;;;-2.52;100.00
3434;BME280;1730;41.932;25.548;2022-12-20T00:16:59;101600.50;;;-0.54;100.00
3434;BME280;1730;41.932;25.548;2022-12-20T00:19:24;101294.41;;;-2.48;100.00
3434;BME280;1730;41.932;25.548;2022-12-20T00:21:50;101611.91;;;-0.52;100.00
3434;BME280;1730;41.932;25.548;2022-12-20T00:24:15;101468.53;;;-1.26;100.00
3434;BME280;1730;41.932;25.548;2022-12-20T00:26:41;101607.88;;;-0.73;100.00
3434;BME280;1730;41.932;25.548;2022-12-20T00:29:06;101631.66;;;-0.70;100.00
3434;BME280;1730;41.932;25.548;2022-12-20T00:31:32;101616.87;;;-0.81;100.00
3434;BME280;1730;41.932;25.548;2022-12-20T00:33:59;101600.03;;;-0.77;100.00
3434;BME280;1730;41.932;25.548;2022-12-20T00:36:26;101476.16;;;-1.58;100.00
3434;BME280;1730;41.932;25.548;2022-12-20T00:38:53;101627.56;;;-0.87;100.00
3434;BME280;1730;41.932;25.548;2022-12-20T00:41:22;101628.62;;;-0.98;100.00
3434;BME280;1730;41.932;25.548;2022-12-20T00:43:48;101627.84;;;-1.04;100.00
3434;BME280;1730;41.932;25.548;2022-12-20T00:46:15;101637.66;;;-1.12;100.00
3434;BME280;1730;41.932;25.548;2022-12-20T00:48:42;101666.88;;;-1.18;100.00
3434;BME280;1730;41.932;25.548;2022-12-20T00:51:13;101262.06;;;-3.24;100.00
3434;BME280;1730;41.932;25.548;2022-12-20T00:53:39;101641.66;;;-0.87;100.00
3434;BME280;1730;41.932;25.548;2022-12-20T00:56:06;101643.34;;;-0.80;100.00
3434;BME280;1730;41.932;25.548;2022-12-20T00:58:34;101569.88;;;-1.19;100.00
3434;BME280;1730;41.932;25.548;2022-12-20T01:00:59;101635.22;;;-0.71;100.00
3434;BME280;1730;41.932;25.548;2022-12-20T01:03:25;100943.81;;;-4.93;100.00
3434;BME280;1730;41.932;25.548;2022-12-20T01:05:55;101626.00;;;-1.01;100.00
3434;BME280;1730;41.932;25.548;2022-12-20T01:08:22;101681.44;;;-0.90;100.00
3434;BME280;1730;41.932;25.548;2022-12-20T01:11:03;101646.81;;;-0.78;100.00
3434;BME280;1730;41.932;25.548;2022-12-20T01:13:31;101648.47;;;-0.71;100.00
3434;BME280;1730;41.932;25.548;2022-12-20T01:16:03;101631.88;;;-0.80;100.00
3434;BME280;1730;41.932;25.548;2022-12-20T01:18:29;101629.94;;;-1.24;100.00
3434;BME280;1730;41.932;25.548;2022-12-20T01:21:07;101198.50;;;-3.68;100.00
3434;BME280;1730;41.932;25.548;2022-12-20T01:23:33;101630.56;;;-1.09;100.00
3434;BME280;1730;41.932;25.548;2022-12-20T01:26:00;101635.69;;;-1.00;100.00
3434;BME280;1730;41.932;25.548;2022-12-20T01:28:27;101631.84;;;-1.34;100.00
3434;BME280;1730;41.932;25.548;2022-12-20T01:30:53;101645.25;;;-1.48;100.00
3434;BME280;1730;41.932;25.548;2022-12-20T01:33:18;101515.97;;;-2.29;100.00
3434;BME280;1730;41.932;25.548;2022-12-20T01:35:59;101651.34;;;-1.43;100.00
3434;BME280;1730;41.932;25.548;2022-12-20T01:38:25;101643.41;;;-1.43;100.00
3434;BME280;1730;41.932;25.548;2022-12-20T01:40:51;101430.22;;;-2.70;100.00
3434;BME280;1730;41.932;25.548;2022-12-20T01:43:18;101505.31;;;-2.22;100.00
3434;BME280;1730;41.932;25.548;2022-12-20T01:45:44;101656.59;;;-1.38;100.00
3434;BME280;1730;41.932;25.548;2022-12-20T01:48:15;101644.34;;;-1.45;100.00
3434;BME280;1730;41.932;25.548;2022-12-20T01:50:45;101616.53;;;-1.75;100.00
3434;BME280;1730;41.932;25.548;2022-12-20T01:53:11;101633.84;;;-1.53;100.00
3434;BME280;1730;41.932;25.548;2022-12-20T01:55:36;101636.69;;;-1.65;100.00
3434;BME280;1730;41.932;25.548;2022-12-20T01:58:05;101610.38;;;-1.75;100.00
3434;BME280;1730;41.932;25.548;2022-12-20T02:00:31;101644.03;;;-1.88;100.00
3434;BME280;1730;41.932;25.548;2022-12-20T02:03:03;101638.00;;;-1.99;100.00
3434;BME280;1730;41.932;25.548;2022-12-20T02:05:34;101646.78;;;-1.97;100.00
3434;BME280;1730;41.932;25.548;2022-12-20T02:08:00;101507.91;;;-2.91;100.00
3434;BME280;1730;41.932;25.548;2022-12-20T02:16:30;101638.72;;;-1.88;100.00
3434;BME280;1730;41.932;25.548;2022-12-20T02:19:33;101663.81;;;-1.51;100.00
3434;BME280;1730;41.932;25.548;2022-12-20T02:30:31;101411.81;;;-2.74;100.00
3434;BME280;1730;41.932;25.548;2022-12-20T02:33:01;101448.66;;;-2.64;100.00
3434;BME280;1730;41.932;25.548;2022-12-20T02:35:30;101145.09;;;-4.59;100.00
3434;BME280;1730;41.932;25.548;2022-12-20T02:37:58;101429.91;;;-3.20;100.00
3434;BME280;1730;41.932;25.548;2022-12-20T02:40:29;101611.41;;;-2.60;100.00
3434;BME280;1730;41.932;25.548;2022-12-20T02:43:04;101032.22;;;-5.82;100.00
3434;BME280;1730;41.932;25.548;2022-12-20T02:45:51;101608.62;;;-2.47;100.00
3434;BME280;1730;41.932;25.548;2022-12-20T02:48:19;101181.19;;;-4.71;100.00
3434;BME280;1730;41.932;25.548;2022-12-20T02:50:49;101616.44;;;-2.39;100.00
3434;BME280;1730;41.932;25.548;2022-12-20T02:53:17;101270.41;;;-4.45;100.00
3434;BME280;1730;41.932;25.548;2022-12-20T02:55:47;101085.50;;;-5.62;100.00
3434;BME280;1730;41.932;25.548;2022-12-20T02:58:38;101458.31;;;-3.46;100.00
3434;BME280;1730;41.932;25.548;2022-12-20T03:01:10;101219.84;;;-4.79;100.00
3434;BME280;1730;41.932;25.548;2022-12-20T03:03:38;101630.66;;;-2.52;100.00
3434;BME280;1730;41.932;25.548;2022-12-20T03:06:05;101638.25;;;-2.22;100.00
3434;BME280;1730;41.932;25.548;2022-12-20T03:08:31;101439.72;;;-3.32;100.00
3434;BME280;1730;41.932;25.548;2022-12-20T03:10:56;101628.38;;;-2.05;100.00
3434;BME280;1730;41.932;25.548;2022-12-20T03:13:23;101632.56;;;-1.89;100.00
3434;BME280;1730;41.932;25.548;2022-12-20T03:15:49;101241.03;;;-4.00;100.00
3434;BME280;1730;41.932;25.548;2022-12-20T03:18:14;101128.41;;;-4.56;100.00
3434;BME280;1730;41.932;25.548;2022-12-20T03:20:40;101569.94;;;-1.84;100.00
3434;BME280;1730;41.932;25.548;2022-12-20T03:23:06;101341.66;;;-3.68;100.00
3434;BME280;1730;41.932;25.548;2022-12-20T03:25:32;101234.81;;;-3.93;100.00
3434;BME280;1730;41.932;25.548;2022-12-20T03:27:57;101302.69;;;-4.22;100.00
3434;BME280;1730;41.932;25.548;2022-12-20T03:30:23;101556.97;;;-2.02;100.00
3434;BME280;1730;41.932;25.548;2022-12-20T03:32:48;101579.44;;;-1.69;100.00
3434;BME280;1730;41.932;25.548;2022-12-20T03:35:14;101428.47;;;-2.68;100.00
3434;BME280;1730;41.932;25.548;2022-12-20T03:37:39;101417.84;;;-2.65;100.00
3434;BME280;1730;41.932;25.548;2022-12-20T03:40:06;100804.91;;;-6.01;100.00
3434;BME280;1730;41.932;25.548;2022-12-20T03:42:32;101576.69;;;-1.61;100.00
3434;BME280;1730;41.932;25.548;2022-12-20T03:44:58;101546.31;;;-1.94;100.00
3434;BME280;1730;41.932;25.548;2022-12-20T03:47:24;101421.31;;;-2.62;100.00
3434;BME280;1730;41.932;25.548;2022-12-20T03:49:49;101428.12;;;-2.43;100.00
3434;BME280;1730;41.932;25.548;2022-12-20T03:52:16;101414.97;;;-2.46;100.00
3434;BME280;1730;41.932;25.548;2022-12-20T03:54:41;101403.00;;;-2.74;100.00
3434;BME280;1730;41.932;25.548;2022-12-20T03:57:07;101603.72;;;-2.04;100.00
3434;BME280;1730;41.932;25.548;2022-12-20T03:59:33;101420.44;;;-2.62;100.00
3434;BME280;1730;41.932;25.548;2022-12-20T04:02:00;101580.91;;;-1.48;100.00
3434;BME280;1730;41.932;25.548;2022-12-20T04:04:26;101570.16;;;-1.38;100.00
3434;BME280;1730;41.932;25.548;2022-12-20T04:06:51;101557.34;;;-1.63;100.00
3434;BME280;1730;41.932;25.548;2022-12-20T04:09:17;101552.13;;;-1.68;100.00
3434;BME280;1730;41.932;25.548;2022-12-20T04:11:42;101531.94;;;-1.75;100.00
3434;BME280;1730;41.932;25.548;2022-12-20T04:14:08;101124.19;;;-3.94;100.00
3434;BME280;1730;41.932;25.548;2022-12-20T04:16:34;101091.03;;;-4.09;100.00
3434;BME280;1730;41.932;25.548;2022-12-20T04:19:00;101396.25;;;-2.32;100.00
3434;BME280;1730;41.932;25.548;2022-12-20T04:21:31;101393.41;;;-2.18;100.00
3434;BME280;1730;41.932;25.548;2022-12-20T04:23:58;101532.19;;;-1.35;100.00
3434;BME280;1730;41.932;25.548;2022-12-20T04:26:25;101474.44;;;-1.62;100.00
3434;BME280;1730;41.932;25.548;2022-12-20T04:28:50;101519.19;;;-1.49;100.00
3434;BME280;1730;41.932;25.548;2022-12-20T04:31:16;101519.84;;;-1.36;100.00
3434;BME280;1730;41.932;25.548;2022-12-20T04:33:41;101391.56;;;-2.12;100.00
3434;BME280;1730;41.932;25.548;2022-12-20T04:36:08;101517.19;;;-1.34;100.00
3434;BME280;1730;41.932;25.548;2022-12-20T04:38:33;101153.50;;;-3.53;100.00
3434;BME280;1730;41.932;25.548;2022-12-20T04:40:59;101043.22;;;-4.46;100.00
3434;BME280;1730;41.932;25.548;2022-12-20T04:43:25;101277.53;;;-2.40;100.00
3434;BME280;1730;41.932;25.548;2022-12-20T04:45:53;101496.59;;;-1.16;100.00
3434;BME280;1730;41.932;25.548;2022-12-20T04:48:21;101479.97;;;-1.24;100.00
3434;BME280;1730;41.932;25.548;2022-12-20T04:50:48;101478.09;;;-1.17;100.00
3434;BME280;1730;41.932;25.548;2022-12-20T04:53:14;101321.97;;;-2.11;100.00
3434;BME280;1730;41.932;25.548;2022-12-20T04:55:59;100951.59;;;-4.20;100.00
3434;BME280;1730;41.932;25.548;2022-12-20T04:58:24;101390.69;;;-1.60;100.00
3434;BME280;1730;41.932;25.548;2022-12-20T05:00:50;101329.25;;;-1.74;100.00
3434;BME280;1730;41.932;25.548;2022-12-20T05:03:20;101469.56;;;-0.87;100.00
3434;BME280;1730;41.932;25.548;2022-12-20T05:05:46;101288.88;;;-1.84;100.00
3434;BME280;1730;41.932;25.548;2022-12-20T05:08:12;101471.84;;;-0.67;100.00
3434;BME280;1730;41.932;25.548;2022-12-20T05:10:38;101120.66;;;-2.77;100.00
3434;BME280;1730;41.932;25.548;2022-12-20T05:13:03;101321.34;;;-1.30;100.00
3434;BME280;1730;41.932;25.548;2022-12-20T05:15:29;101271.41;;;-1.45;100.00
3434;BME280;1730;41.932;25.548;2022-12-20T05:17:55;101409.44;;;-1.25;100.00
3434;BME280;1730;41.932;25.548;2022-12-20T05:20:28;101438.81;;;-0.11;100.00
3434;BME280;1730;41.932;25.548;2022-12-20T05:22:54;101416.94;;;-0.21;100.00
3434;BME280;1730;41.932;25.548;2022-12-20T05:25:41;101421.34;;;-0.20;100.00
3434;BME280;1730;41.932;25.548;2022-12-20T05:28:27;101416.84;;;-0.16;100.00
3434;BME280;1730;41.932;25.548;2022-12-20T05:30:52;101231.28;;;-1.24;100.00
3434;BME280;1730;41.932;25.548;2022-12-20T05:33:18;101384.28;;;-0.61;100.00
3434;BME280;1730;41.932;25.548;2022-12-20T05:35:43;101446.28;;;-0.28;100.00
3434;BME280;1730;41.932;25.548;2022-12-20T05:38:09;101434.53;;;-0.17;100.00
3434;BME280;1730;41.932;25.548;2022-12-20T05:40:34;101243.28;;;-1.09;100.00
3434;BME280;1730;41.932;25.548;2022-12-20T05:43:00;101401.72;;;-0.13;100.00
3434;BME280;1730;41.932;25.548;2022-12-20T05:45:26;101204.03;;;-1.29;100.00
3434;BME280;1730;41.932;25.548;2022-12-20T05:47:52;101404.56;;;-0.20;100.00
3434;BME280;1730;41.932;25.548;2022-12-20T05:50:17;101274.28;;;-0.76;100.00
3434;BME280;1730;41.932;25.548;2022-12-20T05:52:42;100781.28;;;-3.67;100.00
3434;BME280;1730;41.932;25.548;2022-12-20T05:55:08;101406.56;;;0.09;100.00
3434;BME280;1730;41.932;25.548;2022-12-20T05:57:34;101342.63;;;-0.16;100.00
3434;BME280;1730;41.932;25.548;2022-12-20T06:00:00;101396.72;;;0.48;100.00
3434;BME280;1730;41.932;25.548;2022-12-20T06:02:26;101389.75;;;0.43;100.00
3434;BME280;1730;41.932;25.548;2022-12-20T06:04:52;101396.88;;;0.41;100.00
3434;BME280;1730;41.932;25.548;2022-12-20T06:07:17;101266.66;;;-0.17;100.00
3434;BME280;1730;41.932;25.548;2022-12-20T06:09:43;101398.06;;;0.64;100.00
3434;BME280;1730;41.932;25.548;2022-12-20T06:12:09;101403.94;;;0.75;100.00
3434;BME280;1730;41.932;25.548;2022-12-20T06:14:35;101348.41;;;0.67;100.00
3434;BME280;1730;41.932;25.548;2022-12-20T06:17:00;101344.41;;;0.19;100.00
3434;BME280;1730;41.932;25.548;2022-12-20T06:19:26;101389.22;;;0.96;100.00
3434;BME280;1730;41.932;25.548;2022-12-20T06:21:51;101383.16;;;0.90;100.00
3434;BME280;1730;41.932;25.548;2022-12-20T06:24:17;101351.91;;;0.69;100.00
3434;BME280;1730;41.932;25.548;2022-12-20T06:26:42;101372.78;;;0.81;100.00
3434;BME280;1730;41.932;25.548;2022-12-20T06:29:08;101382.97;;;0.66;100.00
3434;BME280;1730;41.932;25.548;2022-12-20T06:34:35;101358.13;;;0.68;100.00
3434;BME280;1730;41.932;25.548;2022-12-20T06:37:00;101368.13;;;0.89;100.00
3434;BME280;1730;41.932;25.548;2022-12-20T06:39:26;101365.22;;;0.99;100.00
3434;BME280;1730;41.932;25.548;2022-12-20T06:41:52;100821.16;;;-1.89;100.00
3434;BME280;1730;41.932;25.548;2022-12-20T06:44:18;101345.63;;;1.32;100.00
3434;BME280;1730;41.932;25.548;2022-12-20T06:46:43;101337.72;;;1.30;100.00
3434;BME280;1730;41.932;25.548;2022-12-20T06:49:09;101343.03;;;1.58;100.00
3434;BME280;1730;41.932;25.548;2022-12-20T06:51:34;101187.91;;;0.50;100.00
3434;BME280;1730;41.932;25.548;2022-12-20T06:54:00;100915.41;;;-1.52;100.00
3434;BME280;1730;41.932;25.548;2022-12-20T06:56:26;101176.25;;;0.55;100.00
3434;BME280;1730;41.932;25.548;2022-12-20T06:58:51;101332.13;;;1.67;100.00
3434;BME280;1730;41.932;25.548;2022-12-20T07:01:19;100810.50;;;-1.21;100.00
3434;BME280;1730;41.932;25.548;2022-12-20T07:03:45;101167.47;;;0.82;100.00
3434;BME280;1730;41.932;25.548;2022-12-20T07:06:11;101297.34;;;1.47;100.00
3434;BME280;1730;41.932;25.548;2022-12-20T07:08:37;101187.88;;;1.08;100.00
3434;BME280;1730;41.932;25.548;2022-12-20T07:11:04;101318.25;;;2.12;100.00
3434;BME280;1730;41.932;25.548;2022-12-20T07:13:31;101007.88;;;0.39;100.00
3434;BME280;1730;41.932;25.548;2022-12-20T07:15:58;101297.13;;;2.07;100.00
3434;BME280;1730;41.932;25.548;2022-12-20T07:18:24;101295.94;;;2.16;100.00
3434;BME280;1730;41.932;25.548;2022-12-20T07:20:50;101126.25;;;1.25;100.00
3434;BME280;1730;41.932;25.548;2022-12-20T07:23:16;101283.06;;;2.28;100.00
3434;BME280;1730;41.932;25.548;2022-12-20T07:25:43;101291.00;;;2.55;100.00
3434;BME280;1730;41.932;25.548;2022-12-20T07:28:08;100999.16;;;1.13;100.00
3434;BME280;1730;41.932;25.548;2022-12-20T07:30:34;101279.88;;;3.15;100.00
3434;BME280;1730;41.932;25.548;2022-12-20T07:33:02;100922.50;;;0.79;100.00
3434;BME280;1730;41.932;25.548;2022-12-20T07:35:27;101257.22;;;3.03;100.00
3434;BME280;1730;41.932;25.548;2022-12-20T07:37:54;100923.34;;;1.27;100.00
3434;BME280;1730;41.932;25.548;2022-12-20T07:40:20;101253.72;;;3.25;100.00
3434;BME280;1730;41.932;25.548;2022-12-20T07:42:47;101006.59;;;1.99;100.00
3434;BME280;1730;41.932;25.548;2022-12-20T07:45:12;100950.47;;;1.60;100.00
3434;BME280;1730;41.932;25.548;2022-12-20T07:47:38;101233.34;;;3.45;100.00
3434;BME280;1730;41.932;25.548;2022-12-20T07:50:04;101231.28;;;3.30;100.00
3434;BME280;1730;41.932;25.548;2022-12-20T07:52:31;101235.31;;;3.40;100.00
3434;BME280;1730;41.932;25.548;2022-12-20T07:55:02;100994.19;;;2.43;100.00
3434;BME280;1730;41.932;25.548;2022-12-20T07:57:44;100681.34;;;0.68;100.00
3434;BME280;1730;41.932;25.548;2022-12-20T08:00:12;100817.03;;;1.74;100.00
3434;BME280;1730;41.932;25.548;2022-12-20T08:02:42;101179.53;;;3.98;100.00
3434;BME280;1730;41.932;25.548;2022-12-20T08:05:09;101191.97;;;4.38;100.00
3434;BME280;1730;41.932;25.548;2022-12-20T08:07:36;101160.78;;;3.79;100.00
3434;BME280;1730;41.932;25.548;2022-12-20T08:10:06;101186.31;;;4.05;100.00
3434;BME280;1730;41.932;25.548;2022-12-20T08:12:33;101147.88;;;3.48;100.00
3434;BME280;1730;41.932;25.548;2022-12-20T08:14:58;101026.06;;;2.88;100.00
3434;BME280;1730;41.932;25.548;2022-12-20T08:17:24;101179.25;;;3.84;100.00
3434;BME280;1730;41.932;25.548;2022-12-20T08:19:51;101184.97;;;3.54;100.00
3434;BME280;1730;41.932;25.548;2022-12-20T08:22:18;101178.44;;;3.82;100.00
3434;BME280;1730;41.932;25.548;2022-12-20T08:24:44;101176.50;;;3.23;100.00
3434;BME280;1730;41.932;25.548;2022-12-20T08:27:09;101019.38;;;2.13;100.00
3434;BME280;1730;41.932;25.548;2022-12-20T08:29:35;101182.37;;;3.09;100.00
3434;BME280;1730;41.932;25.548;2022-12-20T08:32:00;101176.91;;;3.12;100.00
3434;BME280;1730;41.932;25.548;2022-12-20T08:34:26;101150.00;;;3.40;100.00
3434;BME280;1730;41.932;25.548;2022-12-20T08:36:52;101106.47;;;3.20;100.00
3434;BME280;1730;41.932;25.548;2022-12-20T08:39:17;101137.34;;;3.66;100.00
3434;BME280;1730;41.932;25.548;2022-12-20T08:41:43;100773.94;;;1.44;100.00
3434;BME280;1730;41.932;25.548;2022-12-20T08:47:25;100960.13;;;3.34;100.00
3434;BME280;1730;41.932;25.548;2022-12-20T08:50:22;100641.78;;;0.84;100.00
3434;BME280;1730;41.932;25.548;2022-12-20T08:53:18;100993.06;;;3.33;100.00
3434;BME280;1730;41.932;25.548;2022-12-20T08:55:43;101143.13;;;4.54;100.00
3434;BME280;1730;41.932;25.548;2022-12-20T08:58:09;101131.16;;;4.63;100.00
3434;BME280;1730;41.932;25.548;2022-12-20T09:00:35;100915.56;;;3.56;100.00
3434;BME280;1730;41.932;25.548;2022-12-20T09:03:01;101124.28;;;4.95;100.00
3434;BME280;1730;41.932;25.548;2022-12-20T09:05:26;101116.13;;;4.79;100.00
3434;BME280;1730;41.932;25.548;2022-12-20T09:07:52;101125.81;;;4.82;100.00
3434;BME280;1730;41.932;25.548;2022-12-20T09:10:18;101118.16;;;4.37;100.00
3434;BME280;1730;41.932;25.548;2022-12-20T09:12:47;100747.94;;;2.35;100.00
3434;BME280;1730;41.932;25.548;2022-12-20T09:15:15;100490.03;;;1.15;100.00
3434;BME280;1730;41.932;25.548;2022-12-20T09:17:40;100815.69;;;2.87;100.00
3434;BME280;1730;41.932;25.548;2022-12-20T09:20:06;101095.53;;;4.44;100.00
3434;BME280;1730;41.932;25.548;2022-12-20T09:22:32;101094.37;;;4.87;100.00
3434;BME280;1730;41.932;25.548;2022-12-20T09:24:57;101091.16;;;4.62;100.00
3434;BME280;1730;41.932;25.548;2022-12-20T09:27:23;101102.25;;;4.52;100.00
3434;BME280;1730;41.932;25.548;2022-12-20T09:29:48;101061.19;;;4.55;100.00
3434;BME280;1730;41.932;25.548;2022-12-20T09:32:14;100698.47;;;2.88;100.00
3434;BME280;1730;41.932;25.548;2022-12-20T09:34:40;101109.28;;;4.74;100.00
3434;BME280;1730;41.932;25.548;2022-12-20T09:37:06;101083.75;;;5.21;100.00
3434;BME280;1730;41.932;25.548;2022-12-20T09:39:32;101073.12;;;5.20;100.00
3434;BME280;1730;41.932;25.548;2022-12-20T09:41:58;101070.75;;;5.14;100.00
3434;BME280;1730;41.932;25.548;2022-12-20T09:44:29;101061.97;;;5.29;100.00
3434;BME280;1730;41.932;25.548;2022-12-20T09:47:11;101105.63;;;5.29;100.00
3434;BME280;1730;41.932;25.548;2022-12-20T09:55:53;101041.56;;;5.09;100.00
3434;BME280;1730;41.932;25.548;2022-12-20T09:58:30;101044.41;;;5.06;100.00
3434;BME280;1730;41.932;25.548;2022-12-20T10:01:21;101117.97;;;5.32;100.00
3434;BME280;1730;41.932;25.548;2022-12-20T10:03:56;100921.41;;;4.37;100.00
3434;BME280;1730;41.932;25.548;2022-12-20T10:08:58;101060.84;;;5.16;100.00
3434;BME280;1730;41.932;25.548;2022-12-20T10:25:26;100903.06;;;4.66;100.00
3434;BME280;1730;41.932;25.548;2022-12-20T10:27:55;101027.44;;;5.41;100.00
3434;BME280;1730;41.932;25.548;2022-12-20T10:30:24;100992.06;;;5.69;100.00
3434;BME280;1730;41.932;25.548;2022-12-20T10:32:52;100859.31;;;5.18;100.00
3434;BME280;1730;41.932;25.548;2022-12-20T10:38:07;101004.84;;;5.47;100.00
3434;BME280;1730;41.932;25.548;2022-12-20T10:40:47;100969.25;;;5.29;100.00
3434;BME280;1730;41.932;25.548;2022-12-20T10:43:18;100981.06;;;5.58;100.00
3434;BME280;1730;41.932;25.548;2022-12-20T10:45:57;100631.28;;;3.71;100.00
3434;BME280;1730;41.932;25.548;2022-12-20T10:48:30;100987.25;;;5.76;100.00
3434;BME280;1730;41.932;25.548;2022-12-20T10:51:00;100950.78;;;5.91;100.00
3434;BME280;1730;41.932;25.548;2022-12-20T10:53:26;100821.16;;;4.99;100.00
3434;BME280;1730;41.932;25.548;2022-12-20T10:56:03;100939.41;;;5.87;100.00
3434;BME280;1730;41.932;25.548;2022-12-20T10:58:34;100806.06;;;5.31;100.00
3434;BME280;1730;41.932;25.548;2022-12-20T11:01:14;100920.50;;;5.57;100.00
3434;BME280;1730;41.932;25.548;2022-12-20T11:06:18;100925.47;;;6.27;100.00
3434;BME280;1730;41.932;25.548;2022-12-20T11:08:44;100924.94;;;6.52;100.00
3434;BME280;1730;41.932;25.548;2022-12-20T11:11:23;100909.81;;;6.81;100.00
3434;BME280;1730;41.932;25.548;2022-12-20T11:13:50;100913.16;;;6.70;100.00
3434;BME280;1730;41.932;25.548;2022-12-20T11:16:37;100903.03;;;6.75;100.00
3434;BME280;1730;41.932;25.548;2022-12-20T11:25:10;100900.00;;;6.96;100.00
3434;BME280;1730;41.932;25.548;2022-12-20T11:30:18;100888.03;;;7.01;100.00
3434;BME280;1730;41.932;25.548;2022-12-20T11:36:10;100866.00;;;6.37;100.00
3434;BME280;1730;41.932;25.548;2022-12-20T11:38:44;100705.16;;;5.49;100.00
3434;BME280;1730;41.932;25.548;2022-12-20T11:41:24;100866.25;;;6.48;100.00
3434;BME280;1730;41.932;25.548;2022-12-20T11:47:26;100859.97;;;6.93;100.00
3434;BME280;1730;41.932;25.548;2022-12-20T11:50:06;100809.47;;;6.27;100.00
3434;BME280;1730;41.932;25.548;2022-12-20T11:52:44;100853.06;;;6.89;100.00
3434;BME280;1730;41.932;25.548;2022-12-20T12:00:34;100847.34;;;7.37;100.00
3434;BME280;1730;41.932;25.548;2022-12-20T12:06:18;100850.13;;;7.50;100.00
3434;BME280;1730;41.932;25.548;2022-12-20T12:09:21;100833.03;;;7.65;100.00
3434;BME280;1730;41.932;25.548;2022-12-20T12:11:53;100852.69;;;7.51;100.00
3434;BME280;1730;41.932;25.548;2022-12-20T12:14:47;100853.63;;;7.64;100.00
3434;BME280;1730;41.932;25.548;2022-12-20T12:20:05;100838.81;;;7.31;100.00
3434;BME280;1730;41.932;25.548;2022-12-20T12:22:35;100674.22;;;6.76;100.00
3434;BME280;1730;41.932;25.548;2022-12-20T12:25:07;100829.81;;;7.32;100.00
3434;BME280;1730;41.932;25.548;2022-12-20T12:27:35;100833.47;;;7.31;100.00
3434;BME280;1730;41.932;25.548;2022-12-20T12:30:01;100824.53;;;7.16;100.00
3434;BME280;1730;41.932;25.548;2022-12-20T12:32:33;100776.47;;;6.70;100.00
3434;BME280;1730;41.932;25.548;2022-12-20T12:45:59;100840.84;;;7.41;100.00
3434;BME280;1730;41.932;25.548;2022-12-20T12:48:36;100811.41;;;7.40;100.00
3434;BME280;1730;41.932;25.548;2022-12-20T12:51:05;100807.00;;;7.24;100.00
3434;BME280;1730;41.932;25.548;2022-12-20T12:53:43;100807.44;;;7.59;100.00
3434;BME280;1730;41.932;25.548;2022-12-20T13:01:49;100819.09;;;7.17;100.00
3434;BME280;1730;41.932;25.548;2022-12-20T13:04:27;100812.28;;;7.40;100.00
3434;BME280;1730;41.932;25.548;2022-12-20T13:06:56;100641.56;;;5.99;100.00
3434;BME280;1730;41.932;25.548;2022-12-20T13:09:37;100812.75;;;7.04;100.00
3434;BME280;1730;41.932;25.548;2022-12-20T13:20:19;100801.72;;;7.37;100.00
3434;BME280;1730;41.932;25.548;2022-12-20T13:25:50;100822.81;;;6.87;100.00
3434;BME280;1730;41.932;25.548;2022-12-20T13:33:45;100299.47;;;4.20;100.00
3434;BME280;1730;41.932;25.548;2022-12-20T13:38:55;100815.53;;;6.89;100.00
3434;BME280;1730;41.932;25.548;2022-12-20T13:44:09;100797.62;;;6.75;100.00
3434;BME280;1730;41.932;25.548;2022-12-20T13:49:41;100791.28;;;6.76;100.00
3434;BME280;1730;41.932;25.548;2022-12-20T13:54:43;100796.75;;;6.01;100.00
3434;BME280;1730;41.932;25.548;2022-12-20T13:57:16;100788.44;;;6.05;100.00
3434;BME280;1730;41.932;25.548;2022-12-20T13:59:52;100818.12;;;6.16;100.00
3434;BME280;1730;41.932;25.548;2022-12-20T14:02:25;100748.84;;;6.10;100.00
3434;BME280;1730;41.932;25.548;2022-12-20T14:04:58;100671.47;;;5.76;100.00
3434;BME280;1730;41.932;25.548;2022-12-20T14:07:26;100790.44;;;6.31;100.00
3434;BME280;1730;41.932;25.548;2022-12-20T14:10:02;100757.84;;;6.09;100.00
3434;BME280;1730;41.932;25.548;2022-12-20T14:12:33;100781.16;;;6.23;100.00
3434;BME280;1730;41.932;25.548;2022-12-20T14:14:59;100795.16;;;6.12;100.00
3434;BME280;1730;41.932;25.548;2022-12-20T14:17:29;100751.56;;;5.95;100.00
3434;BME280;1730;41.932;25.548;2022-12-20T14:20:05;100785.50;;;6.10;100.00
3434;BME280;1730;41.932;25.548;2022-12-20T14:22:33;100775.94;;;6.20;100.00
3434;BME280;1730;41.932;25.548;2022-12-20T14:25:03;100772.13;;;6.24;100.00
3434;BME280;1730;41.932;25.548;2022-12-20T14:27:34;100772.94;;;6.10;100.00
3434;BME280;1730;41.932;25.548;2022-12-20T14:30:03;100771.72;;;6.16;100.00
3434;BME280;1730;41.932;25.548;2022-12-20T14:32:48;100769.13;;;6.14;100.00
3434;BME280;1730;41.932;25.548;2022-12-20T14:35:35;100770.88;;;6.15;100.00
3434;BME280;1730;41.932;25.548;2022-12-20T14:38:01;100762.78;;;5.85;100.00
3434;BME280;1730;41.932;25.548;2022-12-20T14:43:55;100778.53;;;5.60;100.00
3434;BME280;1730;41.932;25.548;2022-12-20T14:50:17;100785.84;;;5.41;100.00
3434;BME280;1730;41.932;25.548;2022-12-20T14:52:45;100784.03;;;5.41;100.00
3434;BME280;1730;41.932;25.548;2022-12-20T14:55:18;100784.91;;;5.26;100.00
3434;BME280;1730;41.932;25.548;2022-12-20T14:57:51;100111.59;;;1.06;100.00
3434;BME280;1730;41.932;25.548;2022-12-20T15:00:33;100781.59;;;5.06;100.00
3434;BME280;1730;41.932;25.548;2022-12-20T15:03:17;100603.81;;;3.86;100.00
3434;BME280;1730;41.932;25.548;2022-12-20T15:05:51;100817.81;;;5.11;100.00
3434;BME280;1730;41.932;25.548;2022-12-20T15:08:22;100791.69;;;5.16;100.00
3434;BME280;1730;41.932;25.548;2022-12-20T15:13:34;100829.69;;;5.06;100.00
3434;BME280;1730;41.932;25.548;2022-12-20T15:16:02;100795.50;;;5.12;100.00